sensor_id;sensor_type;location;lat;lon;timestamp;pressure;altitude;pressure_sealevel;temperature;humidity
45403;BME280;47427;51.976;5.326;2024-03-06T00:01:16;101760.66;;;3.87;100.00
45403;BME280;47427;51.976;5.326;2024-03-06T00:04:19;101758.56;;;3.81;100.00
45403;BME280;47427;51.976;5.326;2024-03-06T00:07:22;101758.38;;;3.78;100.00
45403;BME280;47427;51.976;5.326;2024-03-06T00:10:43;101762.44;;;3.75;100.00
45403;BME280;47427;51.976;5.326;2024-03-06T00:13:45;101765.94;;;3.75;100.00
45403;BME280;47427;51.976;5.326;2024-03-06T00:16:50;101759.63;;;3.72;100.00
45403;BME280;47427;51.976;5.326;2024-03-06T00:19:53;101773.22;;;3.67;100.00
45403;BME280;47427;51.976;5.326;2024-03-06T00:22:54;101774.25;;;3.58;100.00
45403;BME280;47427;51.976;5.326;2024-03-06T00:25:58;101781.34;;;3.60;100.00
45403;BME280;47427;51.976;5.326;2024-03-06T00:29:00;101778.25;;;3.53;100.00
45403;BME280;47427;51.976;5.326;2024-03-06T00:32:03;101779.81;;;3.51;100.00
45403;BME280;47427;51.976;5.326;2024-03-06T00:35:05;101775.53;;;3.51;100.00
45403;BME280;47427;51.976;5.326;2024-03-06T00:38:07;101781.84;;;3.55;100.00
45403;BME280;47427;51.976;5.326;2024-03-06T00:41:10;101789.72;;;3.56;100.00
45403;BME280;47427;51.976;5.326;2024-03-06T00:44:13;101785.91;;;3.51;100.00
45403;BME280;47427;51.976;5.326;2024-03-06T00:47:16;101775.13;;;3.45;100.00
45403;BME280;47427;51.976;5.326;2024-03-06T00:50:17;101792.13;;;3.41;100.00
45403;BME280;47427;51.976;5.326;2024-03-06T00:53:20;101791.03;;;3.38;100.00
45403;BME280;47427;51.976;5.326;2024-03-06T00:56:23;101800.84;;;3.42;100.00
45403;BME280;47427;51.976;5.326;2024-03-06T00:59:26;101791.56;;;3.45;100.00
45403;BME280;47427;51.976;5.326;2024-03-06T01:02:27;101801.31;;;3.61;100.00
45403;BME280;47427;51.976;5.326;2024-03-06T01:05:30;101806.66;;;3.76;100.00
45403;BME280;47427;51.976;5.326;2024-03-06T01:08:32;101803.72;;;3.97;100.00
45403;BME280;47427;51.976;5.326;2024-03-06T01:11:35;101803.75;;;4.10;100.00
45403;BME280;47427;51.976;5.326;2024-03-06T01:14:36;101808.50;;;4.16;100.00
45403;BME280;47427;51.976;5.326;2024-03-06T01:17:39;101805.22;;;4.18;100.00
45403;BME280;47427;51.976;5.326;2024-03-06T01:20:41;101819.66;;;4.15;100.00
45403;BME280;47427;51.976;5.326;2024-03-06T01:23:45;101812.53;;;3.99;100.00
45403;BME280;47427;51.976;5.326;2024-03-06T01:26:46;101824.34;;;3.82;100.00
45403;BME280;47427;51.976;5.326;2024-03-06T01:29:49;101822.81;;;3.72;100.00
45403;BME280;47427;51.976;5.326;2024-03-06T01:32:51;101823.97;;;3.64;100.00
45403;BME280;47427;51.976;5.326;2024-03-06T01:35:54;101824.25;;;3.55;100.00
45403;BME280;47427;51.976;5.326;2024-03-06T01:38:55;101830.69;;;3.48;100.00
45403;BME280;47427;51.976;5.326;2024-03-06T01:41:58;101830.38;;;3.44;100.00
45403;BME280;47427;51.976;5.326;2024-03-06T01:45:02;101836.34;;;3.43;100.00
45403;BME280;47427;51.976;5.326;2024-03-06T01:48:05;101836.84;;;3.37;100.00
45403;BME280;47427;51.976;5.326;2024-03-06T01:51:10;101838.28;;;3.34;100.00
45403;BME280;47427;51.976;5.326;2024-03-06T01:54:12;101831.31;;;3.33;100.00
45403;BME280;47427;51.976;5.326;2024-03-06T01:57:15;101834.78;;;3.33;100.00
45403;BME280;47427;51.976;5.326;2024-03-06T02:00:19;101839.44;;;3.25;100.00
45403;BME280;47427;51.976;5.326;2024-03-06T02:03:21;101835.94;;;3.25;100.00
45403;BME280;47427;51.976;5.326;2024-03-06T02:06:23;101842.72;;;3.23;100.00
45403;BME280;47427;51.976;5.326;2024-03-06T02:09:25;101846.88;;;3.21;100.00
45403;BME280;47427;51.976;5.326;2024-03-06T02:12:28;101845.78;;;3.17;100.00
45403;BME280;47427;51.976;5.326;2024-03-06T02:15:30;101842.72;;;3.11;100.00
45403;BME280;47427;51.976;5.326;2024-03-06T02:18:32;101846.25;;;3.12;100.00
45403;BME280;47427;51.976;5.326;2024-03-06T02:21:34;101850.25;;;3.32;100.00
45403;BME280;47427;51.976;5.326;2024-03-06T02:24:37;101856.16;;;3.54;100.00
45403;BME280;47427;51.976;5.326;2024-03-06T02:27:40;101845.28;;;3.72;100.00
45403;BME280;47427;51.976;5.326;2024-03-06T02:30:42;101853.88;;;3.96;100.00
45403;BME280;47427;51.976;5.326;2024-03-06T02:33:46;101847.84;;;4.22;100.00
45403;BME280;47427;51.976;5.326;2024-03-06T02:36:52;101851.09;;;4.31;100.00
45403;BME280;47427;51.976;5.326;2024-03-06T02:39:54;101850.78;;;4.26;100.00
45403;BME280;47427;51.976;5.326;2024-03-06T02:42:56;101850.94;;;4.16;100.00
45403;BME280;47427;51.976;5.326;2024-03-06T02:45:59;101851.84;;;4.17;100.00
45403;BME280;47427;51.976;5.326;2024-03-06T02:49:02;101846.84;;;4.20;100.00
45403;BME280;47427;51.976;5.326;2024-03-06T02:52:04;101840.72;;;4.06;100.00
45403;BME280;47427;51.976;5.326;2024-03-06T02:55:07;101839.56;;;3.89;100.00
45403;BME280;47427;51.976;5.326;2024-03-06T02:58:09;101845.72;;;3.78;100.00
45403;BME280;47427;51.976;5.326;2024-03-06T03:01:13;101843.47;;;3.71;100.00
45403;BME280;47427;51.976;5.326;2024-03-06T03:04:16;101855.66;;;3.72;100.00
45403;BME280;47427;51.976;5.326;2024-03-06T03:07:19;101859.75;;;3.68;100.00
45403;BME280;47427;51.976;5.326;2024-03-06T03:10:23;101848.53;;;3.81;100.00
45403;BME280;47427;51.976;5.326;2024-03-06T03:13:27;101847.03;;;3.84;100.00
45403;BME280;47427;51.976;5.326;2024-03-06T03:16:29;101849.00;;;3.75;100.00
45403;BME280;47427;51.976;5.326;2024-03-06T03:19:32;101857.16;;;3.68;100.00
45403;BME280;47427;51.976;5.326;2024-03-06T03:22:33;101854.97;;;3.74;100.00
45403;BME280;47427;51.976;5.326;2024-03-06T03:25:36;101863.91;;;3.66;100.00
45403;BME280;47427;51.976;5.326;2024-03-06T03:28:39;101860.22;;;3.62;100.00
45403;BME280;47427;51.976;5.326;2024-03-06T03:31:42;101864.41;;;3.60;100.00
45403;BME280;47427;51.976;5.326;2024-03-06T03:34:43;101867.47;;;3.55;100.00
45403;BME280;47427;51.976;5.326;2024-03-06T03:37:46;101872.53;;;3.53;100.00
45403;BME280;47427;51.976;5.326;2024-03-06T03:40:48;101872.66;;;3.55;100.00
45403;BME280;47427;51.976;5.326;2024-03-06T03:43:51;101875.25;;;3.55;100.00
45403;BME280;47427;51.976;5.326;2024-03-06T03:46:52;101876.16;;;3.55;100.00
45403;BME280;47427;51.976;5.326;2024-03-06T03:49:55;101878.97;;;3.46;100.00
45403;BME280;47427;51.976;5.326;2024-03-06T03:52:58;101878.00;;;3.44;100.00
45403;BME280;47427;51.976;5.326;2024-03-06T03:56:03;101886.66;;;3.33;100.00
45403;BME280;47427;51.976;5.326;2024-03-06T03:59:04;101881.94;;;3.28;100.00
45403;BME280;47427;51.976;5.326;2024-03-06T04:02:08;101879.03;;;3.23;100.00
45403;BME280;47427;51.976;5.326;2024-03-06T04:05:10;101881.88;;;3.14;100.00
45403;BME280;47427;51.976;5.326;2024-03-06T04:08:13;101878.34;;;3.14;100.00
45403;BME280;47427;51.976;5.326;2024-03-06T04:11:16;101884.22;;;3.11;100.00
45403;BME280;47427;51.976;5.326;2024-03-06T04:14:19;101882.00;;;3.04;100.00
45403;BME280;47427;51.976;5.326;2024-03-06T04:17:21;101885.13;;;3.00;100.00
45403;BME280;47427;51.976;5.326;2024-03-06T04:20:27;101890.66;;;2.93;100.00
45403;BME280;47427;51.976;5.326;2024-03-06T04:23:30;101885.59;;;2.94;100.00
45403;BME280;47427;51.976;5.326;2024-03-06T04:26:32;101888.53;;;2.99;100.00
45403;BME280;47427;51.976;5.326;2024-03-06T04:29:35;101887.72;;;3.00;100.00
45403;BME280;47427;51.976;5.326;2024-03-06T04:32:37;101895.25;;;3.09;100.00
45403;BME280;47427;51.976;5.326;2024-03-06T04:35:41;101898.53;;;3.06;100.00
45403;BME280;47427;51.976;5.326;2024-03-06T04:38:43;101899.88;;;3.01;100.00
45403;BME280;47427;51.976;5.326;2024-03-06T04:41:46;101898.66;;;2.96;100.00
45403;BME280;47427;51.976;5.326;2024-03-06T04:44:48;101913.44;;;2.97;100.00
45403;BME280;47427;51.976;5.326;2024-03-06T04:47:51;101908.03;;;2.94;100.00
45403;BME280;47427;51.976;5.326;2024-03-06T04:50:53;101909.91;;;3.08;100.00
45403;BME280;47427;51.976;5.326;2024-03-06T04:53:55;101910.38;;;3.14;100.00
45403;BME280;47427;51.976;5.326;2024-03-06T04:56:58;101919.63;;;3.22;100.00
45403;BME280;47427;51.976;5.326;2024-03-06T05:00:00;101927.28;;;3.33;100.00
45403;BME280;47427;51.976;5.326;2024-03-06T05:03:08;101922.53;;;3.39;100.00
45403;BME280;47427;51.976;5.326;2024-03-06T05:06:09;101917.88;;;3.46;100.00
45403;BME280;47427;51.976;5.326;2024-03-06T05:09:12;101931.75;;;3.59;100.00
45403;BME280;47427;51.976;5.326;2024-03-06T05:12:15;101936.38;;;3.63;100.00
45403;BME280;47427;51.976;5.326;2024-03-06T05:15:18;101936.72;;;3.67;100.00
45403;BME280;47427;51.976;5.326;2024-03-06T05:18:21;101946.84;;;3.64;100.00
45403;BME280;47427;51.976;5.326;2024-03-06T05:21:23;101942.13;;;3.59;100.00
45403;BME280;47427;51.976;5.326;2024-03-06T05:24:26;101946.19;;;3.55;100.00
45403;BME280;47427;51.976;5.326;2024-03-06T05:27:28;101949.69;;;3.56;100.00
45403;BME280;47427;51.976;5.326;2024-03-06T05:30:30;101954.75;;;3.54;100.00
45403;BME280;47427;51.976;5.326;2024-03-06T05:33:32;101951.19;;;3.52;100.00
45403;BME280;47427;51.976;5.326;2024-03-06T05:36:35;101952.75;;;3.50;100.00
45403;BME280;47427;51.976;5.326;2024-03-06T05:39:38;101957.72;;;3.47;100.00
45403;BME280;47427;51.976;5.326;2024-03-06T05:42:39;101969.00;;;3.47;100.00
45403;BME280;47427;51.976;5.326;2024-03-06T05:45:42;101964.84;;;3.38;100.00
45403;BME280;47427;51.976;5.326;2024-03-06T05:48:44;101968.91;;;3.34;100.00
45403;BME280;47427;51.976;5.326;2024-03-06T05:51:47;101979.38;;;3.36;100.00
45403;BME280;47427;51.976;5.326;2024-03-06T05:54:48;101981.19;;;3.25;100.00
45403;BME280;47427;51.976;5.326;2024-03-06T05:57:51;101985.59;;;3.14;100.00
45403;BME280;47427;51.976;5.326;2024-03-06T06:00:54;101985.91;;;3.19;100.00
45403;BME280;47427;51.976;5.326;2024-03-06T06:03:56;101989.50;;;3.21;100.00
45403;BME280;47427;51.976;5.326;2024-03-06T06:06:59;101995.28;;;3.17;100.00
45403;BME280;47427;51.976;5.326;2024-03-06T06:10:02;101996.94;;;3.16;100.00
45403;BME280;47427;51.976;5.326;2024-03-06T06:13:04;101999.31;;;3.13;100.00
45403;BME280;47427;51.976;5.326;2024-03-06T06:16:07;102000.56;;;3.18;100.00
45403;BME280;47427;51.976;5.326;2024-03-06T06:19:09;102003.16;;;3.18;100.00
45403;BME280;47427;51.976;5.326;2024-03-06T06:22:11;102008.25;;;3.29;100.00
45403;BME280;47427;51.976;5.326;2024-03-06T06:25:14;102012.66;;;3.30;100.00
45403;BME280;47427;51.976;5.326;2024-03-06T06:28:18;102024.38;;;3.36;100.00
45403;BME280;47427;51.976;5.326;2024-03-06T06:31:20;102020.41;;;3.41;100.00
45403;BME280;47427;51.976;5.326;2024-03-06T06:34:22;102026.84;;;3.46;100.00
45403;BME280;47427;51.976;5.326;2024-03-06T06:37:25;102030.13;;;3.56;100.00
45403;BME280;47427;51.976;5.326;2024-03-06T06:40:46;102038.00;;;3.69;100.00
45403;BME280;47427;51.976;5.326;2024-03-06T06:43:47;102050.75;;;3.89;100.00
45403;BME280;47427;51.976;5.326;2024-03-06T06:46:49;102059.19;;;4.10;100.00
45403;BME280;47427;51.976;5.326;2024-03-06T06:49:51;102063.09;;;4.29;100.00
45403;BME280;47427;51.976;5.326;2024-03-06T06:52:54;102075.06;;;4.39;100.00
45403;BME280;47427;51.976;5.326;2024-03-06T06:55:57;102071.56;;;4.38;100.00
45403;BME280;47427;51.976;5.326;2024-03-06T06:58:59;102084.13;;;4.57;100.00
45403;BME280;47427;51.976;5.326;2024-03-06T07:02:02;102090.28;;;4.46;100.00
45403;BME280;47427;51.976;5.326;2024-03-06T07:05:09;102092.34;;;4.38;100.00
45403;BME280;47427;51.976;5.326;2024-03-06T07:08:12;102088.81;;;4.38;100.00
45403;BME280;47427;51.976;5.326;2024-03-06T07:11:16;102099.00;;;4.34;100.00
45403;BME280;47427;51.976;5.326;2024-03-06T07:14:19;102099.88;;;4.47;100.00
45403;BME280;47427;51.976;5.326;2024-03-06T07:17:21;102092.59;;;4.66;100.00
45403;BME280;47427;51.976;5.326;2024-03-06T07:20:24;102093.97;;;4.86;100.00
45403;BME280;47427;51.976;5.326;2024-03-06T07:23:25;102103.69;;;4.89;100.00
45403;BME280;47427;51.976;5.326;2024-03-06T07:26:28;102103.25;;;4.83;100.00
45403;BME280;47427;51.976;5.326;2024-03-06T07:29:32;102106.28;;;4.89;100.00
45403;BME280;47427;51.976;5.326;2024-03-06T07:32:34;102111.72;;;4.80;100.00
45403;BME280;47427;51.976;5.326;2024-03-06T07:35:36;102115.47;;;4.84;100.00
45403;BME280;47427;51.976;5.326;2024-03-06T07:38:38;102113.69;;;4.71;100.00
45403;BME280;47427;51.976;5.326;2024-03-06T07:41:41;102118.19;;;4.98;100.00
45403;BME280;47427;51.976;5.326;2024-03-06T07:44:44;102121.72;;;5.24;100.00
45403;BME280;47427;51.976;5.326;2024-03-06T07:47:47;102124.03;;;5.33;100.00
45403;BME280;47427;51.976;5.326;2024-03-06T07:50:50;102122.78;;;5.53;100.00
45403;BME280;47427;51.976;5.326;2024-03-06T07:54:12;102125.78;;;5.59;100.00
45403;BME280;47427;51.976;5.326;2024-03-06T07:57:13;102140.00;;;5.64;100.00
45403;BME280;47427;51.976;5.326;2024-03-06T08:00:15;102144.03;;;5.72;100.00
45403;BME280;47427;51.976;5.326;2024-03-06T08:03:17;102138.03;;;5.86;100.00
45403;BME280;47427;51.976;5.326;2024-03-06T08:06:20;102146.88;;;6.02;100.00
45403;BME280;47427;51.976;5.326;2024-03-06T08:09:23;102140.22;;;5.80;100.00
45403;BME280;47427;51.976;5.326;2024-03-06T08:12:24;102138.13;;;5.88;100.00
45403;BME280;47427;51.976;5.326;2024-03-06T08:15:27;102143.56;;;6.18;100.00
45403;BME280;47427;51.976;5.326;2024-03-06T08:18:30;102145.97;;;6.28;100.00
45403;BME280;47427;51.976;5.326;2024-03-06T08:21:33;102156.09;;;6.37;100.00
45403;BME280;47427;51.976;5.326;2024-03-06T08:24:34;102151.88;;;6.39;100.00
45403;BME280;47427;51.976;5.326;2024-03-06T08:27:39;102156.34;;;6.55;100.00
45403;BME280;47427;51.976;5.326;2024-03-06T08:30:42;102158.13;;;6.69;100.00
45403;BME280;47427;51.976;5.326;2024-03-06T08:33:46;102161.94;;;6.61;100.00
45403;BME280;47427;51.976;5.326;2024-03-06T08:36:47;102159.00;;;6.41;100.00
45403;BME280;47427;51.976;5.326;2024-03-06T08:39:49;102177.34;;;6.16;100.00
45403;BME280;47427;51.976;5.326;2024-03-06T08:42:51;102170.72;;;5.95;100.00
45403;BME280;47427;51.976;5.326;2024-03-06T08:45:56;102192.28;;;6.19;100.00
45403;BME280;47427;51.976;5.326;2024-03-06T08:48:59;102193.25;;;5.94;100.00
45403;BME280;47427;51.976;5.326;2024-03-06T08:52:00;102199.69;;;5.74;100.00
45403;BME280;47427;51.976;5.326;2024-03-06T08:55:03;102197.41;;;5.65;100.00
45403;BME280;47427;51.976;5.326;2024-03-06T08:58:06;102208.72;;;5.66;100.00
45403;BME280;47427;51.976;5.326;2024-03-06T09:01:09;102208.31;;;5.98;100.00
45403;BME280;47427;51.976;5.326;2024-03-06T09:04:11;102215.91;;;6.35;100.00
45403;BME280;47427;51.976;5.326;2024-03-06T09:07:14;102217.72;;;6.76;100.00
45403;BME280;47427;51.976;5.326;2024-03-06T09:10:16;102218.88;;;7.23;100.00
45403;BME280;47427;51.976;5.326;2024-03-06T09:13:21;102214.50;;;7.51;100.00
45403;BME280;47427;51.976;5.326;2024-03-06T09:16:22;102225.53;;;7.60;100.00
45403;BME280;47427;51.976;5.326;2024-03-06T09:19:25;102231.03;;;7.65;100.00
45403;BME280;47427;51.976;5.326;2024-03-06T09:22:27;102227.25;;;7.60;100.00
45403;BME280;47427;51.976;5.326;2024-03-06T09:25:30;102235.59;;;7.54;100.00
45403;BME280;47427;51.976;5.326;2024-03-06T09:28:31;102243.31;;;7.38;100.00
45403;BME280;47427;51.976;5.326;2024-03-06T09:31:34;102243.38;;;7.25;100.00
45403;BME280;47427;51.976;5.326;2024-03-06T09:34:36;102252.84;;;7.37;100.00
45403;BME280;47427;51.976;5.326;2024-03-06T09:37:39;102247.31;;;7.61;100.00
45403;BME280;47427;51.976;5.326;2024-03-06T09:40:40;102256.97;;;7.77;100.00
45403;BME280;47427;51.976;5.326;2024-03-06T09:43:44;102250.44;;;7.98;100.00
45403;BME280;47427;51.976;5.326;2024-03-06T09:46:48;102254.22;;;8.33;100.00
45403;BME280;47427;51.976;5.326;2024-03-06T09:49:51;102258.91;;;8.39;100.00
45403;BME280;47427;51.976;5.326;2024-03-06T09:52:55;102252.31;;;8.31;100.00
45403;BME280;47427;51.976;5.326;2024-03-06T09:55:57;102258.78;;;8.37;100.00
45403;BME280;47427;51.976;5.326;2024-03-06T09:59:00;102267.09;;;8.60;100.00
45403;BME280;47427;51.976;5.326;2024-03-06T10:02:04;102269.44;;;8.55;100.00
45403;BME280;47427;51.976;5.326;2024-03-06T10:05:20;102276.03;;;8.95;100.00
45403;BME280;47427;51.976;5.326;2024-03-06T10:08:22;102279.09;;;9.19;100.00
45403;BME280;47427;51.976;5.326;2024-03-06T10:11:25;102268.50;;;9.32;100.00
45403;BME280;47427;51.976;5.326;2024-03-06T10:14:27;102271.09;;;9.32;100.00
45403;BME280;47427;51.976;5.326;2024-03-06T10:17:31;102273.06;;;9.20;100.00
45403;BME280;47427;51.976;5.326;2024-03-06T10:20:35;102277.00;;;9.61;100.00
45403;BME280;47427;51.976;5.326;2024-03-06T10:23:37;102274.88;;;9.70;100.00
45403;BME280;47427;51.976;5.326;2024-03-06T10:26:39;102279.53;;;9.75;100.00
45403;BME280;47427;51.976;5.326;2024-03-06T10:29:42;102281.22;;;9.91;100.00
45403;BME280;47427;51.976;5.326;2024-03-06T10:32:47;102280.50;;;9.77;100.00
45403;BME280;47427;51.976;5.326;2024-03-06T10:35:49;102277.84;;;10.10;100.00
45403;BME280;47427;51.976;5.326;2024-03-06T10:38:52;102283.16;;;10.46;100.00
45403;BME280;47427;51.976;5.326;2024-03-06T10:41:57;102290.19;;;10.29;100.00
45403;BME280;47427;51.976;5.326;2024-03-06T10:45:00;102289.09;;;10.26;100.00
45403;BME280;47427;51.976;5.326;2024-03-06T10:48:03;102287.28;;;10.41;100.00
45403;BME280;47427;51.976;5.326;2024-03-06T10:51:07;102290.91;;;10.27;100.00
45403;BME280;47427;51.976;5.326;2024-03-06T10:54:11;102287.56;;;10.47;100.00
45403;BME280;47427;51.976;5.326;2024-03-06T10:57:16;102297.91;;;10.98;100.00
45403;BME280;47427;51.976;5.326;2024-03-06T11:00:19;102293.78;;;11.40;100.00
45403;BME280;47427;51.976;5.326;2024-03-06T11:03:22;102301.72;;;11.22;100.00
45403;BME280;47427;51.976;5.326;2024-03-06T11:06:26;102293.88;;;11.24;100.00
45403;BME280;47427;51.976;5.326;2024-03-06T11:09:34;102292.69;;;11.55;100.00
45403;BME280;47427;51.976;5.326;2024-03-06T11:12:37;102297.25;;;11.21;100.00
45403;BME280;47427;51.976;5.326;2024-03-06T11:15:40;102299.09;;;11.22;100.00
45403;BME280;47427;51.976;5.326;2024-03-06T11:18:42;102310.78;;;11.48;100.00
45403;BME280;47427;51.976;5.326;2024-03-06T11:21:45;102308.19;;;11.68;100.00
45403;BME280;47427;51.976;5.326;2024-03-06T11:24:49;102305.63;;;12.08;100.00
45403;BME280;47427;51.976;5.326;2024-03-06T11:28:17;102309.53;;;12.60;100.00
45403;BME280;47427;51.976;5.326;2024-03-06T11:31:20;102307.72;;;12.80;100.00
45403;BME280;47427;51.976;5.326;2024-03-06T11:34:27;102311.38;;;11.80;100.00
45403;BME280;47427;51.976;5.326;2024-03-06T11:37:29;102322.47;;;11.92;100.00
45403;BME280;47427;51.976;5.326;2024-03-06T11:40:45;102310.22;;;11.17;100.00
45403;BME280;47427;51.976;5.326;2024-03-06T11:43:51;102305.50;;;12.05;100.00
45403;BME280;47427;51.976;5.326;2024-03-06T11:47:16;102318.81;;;13.37;100.00
45403;BME280;47427;51.976;5.326;2024-03-06T11:50:18;102362.53;;;14.27;100.00
45403;BME280;47427;51.976;5.326;2024-03-06T11:53:22;102350.03;;;13.97;100.00
45403;BME280;47427;51.976;5.326;2024-03-06T11:56:24;102333.47;;;14.01;100.00
45403;BME280;47427;51.976;5.326;2024-03-06T11:59:34;102332.94;;;13.39;100.00
45403;BME280;47427;51.976;5.326;2024-03-06T12:02:36;102340.72;;;14.32;100.00
45403;BME280;47427;51.976;5.326;2024-03-06T12:05:39;102430.28;;;18.33;78.22
45403;BME280;47427;51.976;5.326;2024-03-06T12:08:42;102468.63;;;20.04;69.05
45403;BME280;47427;51.976;5.326;2024-03-06T12:11:45;102506.13;;;22.16;61.49
45403;BME280;47427;51.976;5.326;2024-03-06T12:14:58;102505.03;;;18.50;58.07
45403;BME280;47427;51.976;5.326;2024-03-06T12:18:06;102418.44;;;18.15;66.98
45403;BME280;47427;51.976;5.326;2024-03-06T12:21:10;102423.91;;;18.70;66.72
45403;BME280;47427;51.976;5.326;2024-03-06T12:24:15;102471.16;;;20.66;60.68
45403;BME280;47427;51.976;5.326;2024-03-06T12:27:22;102540.28;;;22.88;54.12
45403;BME280;47427;51.976;5.326;2024-03-06T12:30:25;102580.50;;;24.12;48.99
45403;BME280;47427;51.976;5.326;2024-03-06T12:33:27;102586.56;;;24.74;47.52
45403;BME280;47427;51.976;5.326;2024-03-06T12:36:49;102574.22;;;25.73;47.39
45403;BME280;47427;51.976;5.326;2024-03-06T12:39:50;102663.91;;;25.68;40.57
45403;BME280;47427;51.976;5.326;2024-03-06T12:42:53;102649.59;;;25.64;41.06
45403;BME280;47427;51.976;5.326;2024-03-06T12:45:56;102635.34;;;25.53;40.98
45403;BME280;47427;51.976;5.326;2024-03-06T12:49:18;102648.47;;;25.96;39.96
45403;BME280;47427;51.976;5.326;2024-03-06T12:52:21;102646.28;;;26.33;39.23
45403;BME280;47427;51.976;5.326;2024-03-06T12:55:23;102678.22;;;25.71;37.33
45403;BME280;47427;51.976;5.326;2024-03-06T12:58:26;102629.66;;;25.90;39.47
45403;BME280;47427;51.976;5.326;2024-03-06T13:01:30;102685.63;;;26.47;36.02
45403;BME280;47427;51.976;5.326;2024-03-06T13:04:31;102666.69;;;26.59;36.68
45403;BME280;47427;51.976;5.326;2024-03-06T13:07:33;102695.38;;;26.62;34.86
45403;BME280;47427;51.976;5.326;2024-03-06T13:10:36;102675.75;;;27.23;35.40
45403;BME280;47427;51.976;5.326;2024-03-06T13:13:39;102706.66;;;26.93;34.31
45403;BME280;47427;51.976;5.326;2024-03-06T13:16:40;102692.50;;;27.45;34.90
45403;BME280;47427;51.976;5.326;2024-03-06T13:19:42;102742.31;;;27.12;31.54
45403;BME280;47427;51.976;5.326;2024-03-06T13:22:45;102714.91;;;26.79;32.52
45403;BME280;47427;51.976;5.326;2024-03-06T13:25:48;102714.88;;;26.82;32.68
45403;BME280;47427;51.976;5.326;2024-03-06T13:28:49;102721.09;;;26.87;31.97
45403;BME280;47427;51.976;5.326;2024-03-06T13:31:52;102711.84;;;27.08;32.76
45403;BME280;47427;51.976;5.326;2024-03-06T13:34:54;102714.97;;;27.44;32.76
45403;BME280;47427;51.976;5.326;2024-03-06T13:37:57;102730.19;;;27.48;32.21
45403;BME280;47427;51.976;5.326;2024-03-06T13:40:58;102726.13;;;27.15;31.65
45403;BME280;47427;51.976;5.326;2024-03-06T13:44:04;102728.19;;;26.93;31.53
45403;BME280;47427;51.976;5.326;2024-03-06T13:47:07;102740.69;;;27.66;31.49
45403;BME280;47427;51.976;5.326;2024-03-06T13:50:17;102783.25;;;27.44;29.11
45403;BME280;47427;51.976;5.326;2024-03-06T13:53:18;102788.31;;;26.99;28.63
45403;BME280;47427;51.976;5.326;2024-03-06T13:56:21;102763.03;;;27.08;29.76
45403;BME280;47427;51.976;5.326;2024-03-06T13:59:23;102741.66;;;26.93;30.75
45403;BME280;47427;51.976;5.326;2024-03-06T14:02:26;102752.09;;;27.25;30.15
45403;BME280;47427;51.976;5.326;2024-03-06T14:05:28;102757.84;;;26.91;29.79
45403;BME280;47427;51.976;5.326;2024-03-06T14:08:50;102751.31;;;27.11;29.61
45403;BME280;47427;51.976;5.326;2024-03-06T14:11:51;102762.47;;;26.80;29.22
45403;BME280;47427;51.976;5.326;2024-03-06T14:14:55;102750.69;;;26.92;30.51
45403;BME280;47427;51.976;5.326;2024-03-06T14:17:56;102752.16;;;26.34;30.30
45403;BME280;47427;51.976;5.326;2024-03-06T14:20:59;102774.78;;;26.07;29.05
45403;BME280;47427;51.976;5.326;2024-03-06T14:24:03;102769.38;;;26.11;29.84
45403;BME280;47427;51.976;5.326;2024-03-06T14:27:06;102745.09;;;26.19;30.87
45403;BME280;47427;51.976;5.326;2024-03-06T14:30:09;102754.13;;;26.12;30.17
45403;BME280;47427;51.976;5.326;2024-03-06T14:33:14;102739.06;;;25.82;30.99
45403;BME280;47427;51.976;5.326;2024-03-06T14:36:17;102767.69;;;25.98;29.63
45403;BME280;47427;51.976;5.326;2024-03-06T14:39:20;102767.63;;;26.04;29.61
45403;BME280;47427;51.976;5.326;2024-03-06T14:42:25;102768.31;;;26.28;29.46
45403;BME280;47427;51.976;5.326;2024-03-06T14:45:27;102763.00;;;26.20;29.36
45403;BME280;47427;51.976;5.326;2024-03-06T14:48:30;102749.56;;;26.20;30.28
45403;BME280;47427;51.976;5.326;2024-03-06T14:51:32;102742.91;;;25.44;30.82
45403;BME280;47427;51.976;5.326;2024-03-06T14:54:35;102711.75;;;24.98;32.26
45403;BME280;47427;51.976;5.326;2024-03-06T14:57:37;102701.00;;;25.04;32.40
45403;BME280;47427;51.976;5.326;2024-03-06T15:00:39;102700.28;;;24.47;32.46
45403;BME280;47427;51.976;5.326;2024-03-06T15:03:42;102698.47;;;24.44;32.46
45403;BME280;47427;51.976;5.326;2024-03-06T15:06:45;102711.91;;;23.80;32.54
45403;BME280;47427;51.976;5.326;2024-03-06T15:09:47;102695.84;;;23.95;33.03
45403;BME280;47427;51.976;5.326;2024-03-06T15:12:49;102708.19;;;23.18;32.18
45403;BME280;47427;51.976;5.326;2024-03-06T15:15:52;102681.44;;;23.33;33.98
45403;BME280;47427;51.976;5.326;2024-03-06T15:18:55;102666.16;;;23.00;34.10
45403;BME280;47427;51.976;5.326;2024-03-06T15:21:58;102648.06;;;22.47;35.65
45403;BME280;47427;51.976;5.326;2024-03-06T15:25:05;102640.06;;;21.41;36.35
45403;BME280;47427;51.976;5.326;2024-03-06T15:28:10;102626.38;;;20.42;36.99
45403;BME280;47427;51.976;5.326;2024-03-06T15:31:13;102602.69;;;19.48;38.07
45403;BME280;47427;51.976;5.326;2024-03-06T15:34:14;102592.88;;;18.98;38.75
45403;BME280;47427;51.976;5.326;2024-03-06T15:37:17;102585.72;;;18.12;39.60
45403;BME280;47427;51.976;5.326;2024-03-06T15:40:20;102551.56;;;17.90;40.97
45403;BME280;47427;51.976;5.326;2024-03-06T15:43:22;102547.81;;;17.80;41.49
45403;BME280;47427;51.976;5.326;2024-03-06T15:46:24;102525.63;;;17.07;42.96
45403;BME280;47427;51.976;5.326;2024-03-06T15:49:28;102517.81;;;16.80;43.48
45403;BME280;47427;51.976;5.326;2024-03-06T15:52:52;102513.63;;;16.26;44.21
45403;BME280;47427;51.976;5.326;2024-03-06T15:55:54;102500.81;;;16.41;44.46
45403;BME280;47427;51.976;5.326;2024-03-06T15:58:57;102497.78;;;15.99;44.89